createdAt,value
2023-06-21T00:00:06.987Z,37.22
2023-06-21T00:01:07.070Z,46.25
2023-06-21T00:02:06.964Z,50.60
2023-06-21T00:03:07.057Z,39.48
2023-06-21T00:04:07.057Z,40.93
2023-06-21T00:05:06.961Z,42.70
2023-06-21T00:06:06.933Z,44.15
2023-06-21T00:07:06.921Z,39.64
2023-06-21T00:08:06.939Z,41.57
2023-06-21T00:09:07.104Z,46.73
2023-06-21T00:10:06.900Z,42.22
2023-06-21T00:11:06.889Z,35.77
2023-06-21T00:12:06.883Z,36.09
2023-06-21T00:13:06.909Z,37.06
2023-06-21T00:14:06.865Z,37.38
2023-06-21T00:15:06.879Z,38.51
2023-06-21T00:16:06.857Z,37.06
2023-06-21T00:17:06.842Z,34.97
2023-06-21T00:18:06.891Z,34.48
2023-06-21T00:19:06.831Z,34.97
2023-06-21T00:20:06.822Z,39.96
2023-06-21T00:21:06.803Z,47.53
2023-06-21T00:22:06.800Z,36.90
2023-06-21T00:23:06.817Z,36.58
2023-06-21T00:24:06.811Z,41.89
2023-06-21T00:25:06.779Z,49.95
2023-06-21T00:26:06.780Z,40.12
2023-06-21T00:27:06.796Z,37.54
2023-06-21T00:28:06.779Z,36.42
2023-06-21T00:29:06.748Z,36.42
2023-06-21T00:30:06.734Z,42.06
2023-06-21T00:31:06.757Z,39.64
2023-06-21T00:32:06.747Z,38.35
2023-06-21T00:33:06.745Z,49.15
2023-06-21T00:34:06.718Z,38.67
2023-06-21T00:35:06.707Z,38.35
2023-06-21T00:36:06.713Z,42.70
2023-06-21T00:37:06.716Z,35.77
2023-06-21T00:38:06.700Z,35.13
2023-06-21T00:39:06.665Z,37.22
2023-06-21T00:40:06.657Z,49.31
2023-06-21T00:41:06.693Z,45.76
2023-06-21T00:42:06.678Z,44.79
2023-06-21T00:43:06.639Z,37.06
2023-06-21T00:44:06.628Z,37.71
2023-06-21T00:45:06.617Z,39.64
2023-06-21T00:46:06.699Z,37.22
2023-06-21T00:47:06.607Z,37.38
2023-06-21T00:48:06.652Z,49.63
2023-06-21T00:49:06.586Z,41.57
2023-06-21T00:50:06.600Z,39.16
2023-06-21T00:51:06.601Z,40.93
2023-06-21T00:52:06.571Z,44.79
2023-06-21T00:53:06.558Z,39.16
2023-06-21T00:54:06.555Z,36.74
2023-06-21T00:55:06.561Z,36.42
2023-06-21T00:56:07.565Z,40.77
2023-06-21T00:57:06.531Z,49.15
2023-06-21T00:58:06.518Z,38.83
2023-06-21T00:59:06.513Z,48.82
2023-06-21T01:00:06.569Z,39.16
2023-06-21T01:01:06.502Z,48.66
2023-06-21T01:02:06.509Z,41.41
2023-06-21T01:03:06.542Z,40.12
2023-06-21T01:04:06.495Z,40.77
2023-06-21T01:05:06.524Z,38.83
2023-06-21T01:06:06.464Z,36.74
2023-06-21T01:07:06.458Z,36.58
2023-06-21T01:08:06.454Z,45.12
2023-06-21T01:09:06.462Z,40.44
2023-06-21T01:10:06.458Z,40.28
2023-06-21T01:11:06.436Z,37.54
2023-06-21T01:12:06.412Z,36.74
2023-06-21T01:13:06.403Z,38.35
2023-06-21T01:14:06.445Z,40.44
2023-06-21T01:15:06.389Z,35.61
2023-06-21T01:16:06.376Z,36.25
2023-06-21T01:17:06.377Z,43.18
2023-06-21T01:18:06.411Z,46.89
2023-06-21T01:19:06.385Z,40.61
2023-06-21T01:20:06.351Z,46.08
2023-06-21T01:21:06.342Z,35.77
2023-06-21T01:22:06.333Z,34.80
2023-06-21T01:23:06.351Z,43.99
2023-06-21T01:24:06.369Z,50.92
2023-06-21T01:25:06.315Z,52.05
2023-06-21T01:26:06.323Z,40.28
2023-06-21T01:27:06.300Z,42.54
2023-06-21T01:28:06.324Z,55.43
2023-06-21T01:29:06.300Z,40.44
2023-06-21T01:30:06.306Z,46.25
2023-06-21T01:31:06.369Z,44.79
2023-06-21T01:32:06.265Z,39.32
2023-06-21T01:33:06.307Z,39.48
2023-06-21T01:34:06.241Z,36.74
2023-06-21T01:35:06.606Z,42.70
2023-06-21T01:36:06.225Z,48.34
2023-06-21T01:37:06.247Z,39.32
2023-06-21T01:38:06.234Z,39.32
2023-06-21T01:39:06.209Z,37.06
2023-06-21T01:40:06.208Z,36.25
2023-06-21T01:41:06.188Z,43.18
2023-06-21T01:42:06.206Z,43.67
2023-06-21T01:43:06.199Z,43.02
2023-06-21T01:44:06.171Z,44.47
2023-06-21T01:45:06.162Z,43.02
2023-06-21T01:46:06.172Z,41.25
2023-06-21T01:47:06.215Z,40.12
2023-06-21T01:48:06.195Z,41.25
2023-06-21T01:49:06.126Z,42.54
2023-06-21T01:50:06.116Z,39.96
2023-06-21T01:51:06.110Z,45.60
2023-06-21T01:52:06.136Z,40.44
2023-06-21T01:53:06.102Z,37.87
2023-06-21T01:54:06.097Z,39.64
2023-06-21T01:55:06.081Z,39.96
2023-06-21T01:56:06.069Z,47.53
2023-06-21T01:57:06.088Z,39.48
2023-06-21T01:58:06.054Z,44.63
2023-06-21T01:59:06.045Z,51.40
2023-06-21T02:00:06.040Z,43.34
2023-06-21T02:01:06.091Z,43.02
2023-06-21T02:02:06.042Z,46.25
2023-06-21T02:03:06.017Z,38.51
2023-06-21T02:04:06.021Z,37.06
2023-06-21T02:05:06.037Z,39.16
2023-06-21T02:06:06.048Z,41.41
2023-06-21T02:07:06.007Z,37.06
2023-06-21T02:08:06.010Z,37.87
2023-06-21T02:09:05.966Z,42.38
2023-06-21T02:10:05.963Z,38.67
2023-06-21T02:11:05.985Z,43.51
2023-06-21T02:12:05.951Z,38.51
2023-06-21T02:13:05.955Z,44.47
2023-06-21T02:14:05.931Z,52.37
2023-06-21T02:15:05.952Z,47.53
2023-06-21T02:16:05.940Z,44.79
2023-06-21T02:17:05.917Z,49.15
2023-06-21T02:18:05.986Z,60.42
2023-06-21T02:19:05.896Z,50.11
2023-06-21T02:20:05.945Z,45.44
2023-06-21T02:21:05.877Z,42.70
2023-06-21T02:22:05.874Z,40.61
2023-06-21T02:23:05.870Z,45.28
2023-06-21T02:24:05.873Z,60.42
2023-06-21T02:25:05.881Z,51.56
2023-06-21T02:26:05.841Z,45.60
2023-06-21T02:27:05.837Z,45.76
2023-06-21T02:28:05.824Z,49.79
2023-06-21T02:29:05.818Z,49.79
2023-06-21T02:30:05.860Z,49.31
2023-06-21T02:31:05.802Z,47.86
2023-06-21T02:32:05.795Z,47.86
2023-06-21T02:33:05.815Z,41.57
2023-06-21T02:34:05.834Z,42.70
2023-06-21T02:35:05.794Z,49.63
2023-06-21T02:36:05.763Z,42.54
2023-06-21T02:37:05.762Z,44.47
2023-06-21T02:38:05.759Z,43.67
2023-06-21T02:39:05.779Z,47.21
2023-06-21T02:40:05.750Z,45.60
2023-06-21T02:41:05.717Z,52.85
2023-06-21T02:42:05.712Z,52.37
2023-06-21T02:43:05.712Z,52.85
2023-06-21T02:44:05.718Z,43.18
2023-06-21T02:45:05.695Z,42.06
2023-06-21T02:46:05.741Z,53.01
2023-06-21T02:47:05.672Z,50.60
2023-06-21T02:48:05.764Z,44.79
2023-06-21T02:49:05.683Z,43.18
2023-06-21T02:50:05.656Z,40.44
2023-06-21T02:51:05.652Z,44.15
2023-06-21T02:52:05.625Z,50.43
2023-06-21T02:53:05.642Z,50.76
2023-06-21T02:54:05.626Z,43.99
2023-06-21T02:55:05.614Z,40.44
2023-06-21T02:56:05.605Z,44.63
2023-06-21T02:57:05.607Z,46.57
2023-06-21T02:58:05.609Z,51.40
2023-06-21T02:59:05.587Z,41.89
2023-06-21T03:00:05.571Z,45.12
2023-06-21T03:01:05.648Z,41.41
2023-06-21T03:02:05.573Z,42.22
2023-06-21T03:03:05.632Z,40.44
2023-06-21T03:04:05.641Z,50.11
2023-06-21T03:05:05.557Z,48.98
2023-06-21T03:06:05.539Z,45.76
2023-06-21T03:07:05.570Z,44.31
2023-06-21T03:08:05.497Z,53.98
2023-06-21T03:09:05.496Z,40.61
2023-06-21T03:10:05.488Z,45.28
2023-06-21T03:11:05.502Z,37.71
2023-06-21T03:12:05.505Z,49.15
2023-06-21T03:13:05.480Z,44.63
2023-06-21T03:14:05.465Z,43.02
2023-06-21T03:15:05.457Z,45.44
2023-06-21T03:16:05.470Z,43.02
2023-06-21T03:17:05.463Z,44.79
2023-06-21T03:18:05.463Z,51.56
2023-06-21T03:19:05.422Z,41.09
2023-06-21T03:20:05.407Z,54.62
2023-06-21T03:21:05.429Z,48.18
2023-06-21T03:22:05.429Z,41.25
2023-06-21T03:23:05.388Z,39.64
2023-06-21T03:24:05.383Z,44.96
2023-06-21T03:25:05.370Z,41.25
2023-06-21T03:26:05.379Z,46.89
2023-06-21T03:27:05.391Z,53.50
2023-06-21T03:28:05.352Z,52.05
2023-06-21T03:29:05.330Z,43.51
2023-06-21T03:30:05.323Z,46.73
2023-06-21T03:31:05.364Z,52.53
2023-06-21T03:32:05.333Z,39.16
2023-06-21T03:33:05.399Z,48.34
2023-06-21T03:34:05.295Z,55.11
2023-06-21T03:35:05.309Z,49.63
2023-06-21T03:36:05.301Z,47.70
2023-06-21T03:37:05.297Z,60.91
2023-06-21T03:38:05.262Z,56.88
2023-06-21T03:39:05.255Z,48.66
2023-06-21T03:40:05.285Z,50.60
2023-06-21T03:41:05.259Z,40.61
2023-06-21T03:42:05.238Z,47.21
2023-06-21T03:43:05.215Z,52.37
2023-06-21T03:44:05.209Z,54.14
2023-06-21T03:45:05.229Z,54.30
2023-06-21T03:46:05.317Z,50.43
2023-06-21T03:47:05.206Z,55.27
2023-06-21T03:48:05.291Z,52.85
2023-06-21T03:49:05.168Z,48.66
2023-06-21T03:50:05.192Z,51.72
2023-06-21T03:51:05.159Z,51.08
2023-06-21T03:52:05.158Z,50.60
2023-06-21T03:53:05.146Z,46.73
2023-06-21T03:54:05.146Z,43.67
2023-06-21T03:55:05.147Z,45.44
2023-06-21T03:56:05.146Z,42.06
2023-06-21T03:57:05.111Z,55.43
2023-06-21T03:58:05.123Z,45.76
2023-06-21T03:59:05.125Z,43.02
2023-06-21T04:00:05.115Z,41.41
2023-06-21T04:01:05.084Z,50.27
2023-06-21T04:02:05.272Z,43.34
2023-06-21T04:03:05.104Z,51.08
2023-06-21T04:04:05.169Z,53.98
2023-06-21T04:05:05.051Z,47.37
2023-06-21T04:06:05.038Z,53.33
2023-06-21T04:07:05.031Z,48.98
2023-06-21T04:08:05.029Z,46.41
2023-06-21T04:09:05.043Z,46.41
2023-06-21T04:10:06.013Z,54.79
2023-06-21T04:11:05.002Z,54.62
2023-06-21T04:12:04.996Z,46.08
2023-06-21T04:13:05.073Z,51.24
2023-06-21T04:14:05.011Z,50.11
2023-06-21T04:15:04.968Z,52.53
2023-06-21T04:16:04.979Z,50.92
2023-06-21T04:17:04.961Z,46.25
2023-06-21T04:18:05.043Z,56.88
2023-06-21T04:19:04.973Z,49.79
2023-06-21T04:20:04.937Z,47.21
2023-06-21T04:21:04.923Z,55.59
2023-06-21T04:22:04.920Z,47.70
2023-06-21T04:23:04.936Z,50.76
2023-06-21T04:24:04.929Z,49.79
2023-06-21T04:25:06.207Z,48.82
2023-06-21T04:26:05.882Z,56.88
2023-06-21T04:27:05.910Z,50.60
2023-06-21T04:28:04.896Z,45.44
2023-06-21T04:29:04.867Z,53.33
2023-06-21T04:30:04.858Z,54.79
2023-06-21T04:31:04.895Z,52.21
2023-06-21T04:32:05.092Z,49.31
2023-06-21T04:33:05.838Z,54.30
2023-06-21T04:34:04.825Z,52.53
2023-06-21T04:35:04.815Z,52.85
2023-06-21T04:36:04.809Z,50.43
2023-06-21T04:37:04.829Z,54.30
2023-06-21T04:38:04.795Z,52.53
2023-06-21T04:39:04.782Z,56.88
2023-06-21T04:40:16.472Z,52.53
2023-06-21T04:41:06.790Z,52.21
2023-06-21T04:42:04.830Z,47.53
2023-06-21T04:43:04.769Z,60.75
2023-06-21T04:44:04.745Z,56.07
2023-06-21T04:45:04.739Z,48.18
2023-06-21T04:46:04.818Z,57.36
2023-06-21T04:47:04.751Z,56.07
2023-06-21T04:48:04.820Z,57.36
2023-06-21T04:49:04.708Z,51.56
2023-06-21T04:51:06.716Z,53.01
2023-06-21T04:52:04.680Z,45.76
2023-06-21T04:53:04.677Z,48.66
2023-06-21T04:54:04.709Z,58.49
2023-06-21T04:55:04.657Z,58.17
2023-06-21T04:56:04.690Z,55.27
2023-06-21T04:57:04.649Z,53.33
2023-06-21T04:58:04.639Z,47.21
2023-06-21T04:59:04.633Z,53.98
2023-06-21T05:00:04.648Z,41.89
2023-06-21T05:01:04.636Z,55.27
2023-06-21T05:02:04.620Z,47.37
2023-06-21T05:03:05.704Z,50.11
2023-06-21T05:04:04.586Z,54.14
2023-06-21T05:05:04.614Z,53.50
2023-06-21T05:06:04.581Z,49.15
2023-06-21T05:07:04.566Z,51.40
2023-06-21T05:08:04.567Z,51.08
2023-06-21T05:09:04.551Z,53.17
2023-06-21T05:10:04.572Z,49.63
2023-06-21T05:11:04.547Z,51.56
2023-06-21T05:12:04.535Z,50.76
2023-06-21T05:13:04.520Z,44.79
2023-06-21T05:14:04.554Z,57.69
2023-06-21T05:15:04.535Z,57.04
2023-06-21T05:16:04.495Z,55.59
2023-06-21T05:17:05.503Z,56.40
2023-06-21T05:18:04.509Z,56.88
2023-06-21T05:19:04.504Z,55.75
2023-06-21T05:20:04.481Z,51.56
2023-06-21T05:21:04.469Z,58.33
2023-06-21T05:22:04.465Z,56.07
2023-06-21T05:23:04.464Z,53.66
2023-06-21T05:24:04.497Z,53.66
2023-06-21T05:25:04.432Z,52.05
2023-06-21T05:26:05.373Z,49.47
2023-06-21T05:27:05.437Z,52.05
2023-06-21T05:28:04.472Z,46.73
2023-06-21T05:29:04.437Z,53.50
2023-06-21T05:30:04.398Z,42.70
2023-06-21T05:31:04.438Z,51.56
2023-06-21T05:32:04.398Z,50.11
2023-06-21T05:33:04.470Z,49.15
2023-06-21T05:34:04.380Z,51.72
2023-06-21T05:35:04.382Z,50.11
2023-06-21T05:36:04.363Z,49.79
2023-06-21T05:37:04.364Z,50.43
2023-06-21T05:38:04.387Z,50.11
2023-06-21T05:39:04.381Z,53.01
2023-06-21T05:40:04.398Z,53.01
2023-06-21T05:41:04.339Z,48.98
2023-06-21T05:42:04.349Z,51.24
2023-06-21T05:43:04.365Z,52.69
2023-06-21T05:44:04.311Z,54.46
2023-06-21T05:45:04.304Z,50.60
2023-06-21T05:46:04.307Z,53.33
2023-06-21T05:47:04.318Z,64.29
2023-06-21T05:48:04.364Z,65.10
2023-06-21T05:49:04.280Z,64.61
2023-06-21T05:50:04.270Z,60.10
2023-06-21T05:51:04.274Z,59.30
2023-06-21T05:52:04.277Z,61.71
2023-06-21T05:53:04.263Z,63.49
2023-06-21T05:54:04.241Z,62.84
2023-06-21T05:55:04.232Z,63.49
2023-06-21T05:56:04.250Z,60.42
2023-06-21T05:57:04.258Z,60.75
2023-06-21T05:58:04.211Z,60.26
2023-06-21T05:59:04.205Z,63.81
2023-06-21T06:00:04.209Z,62.52
2023-06-21T06:01:16.012Z,63.33
2023-06-21T06:02:06.236Z,70.74
2023-06-21T06:03:04.271Z,69.29
2023-06-21T06:04:04.235Z,67.35
2023-06-21T06:05:04.233Z,70.90
2023-06-21T06:06:04.195Z,68.80
2023-06-21T06:07:04.165Z,68.16
2023-06-21T06:08:04.145Z,65.10
2023-06-21T06:09:04.132Z,68.32
2023-06-21T06:10:04.157Z,55.75
2023-06-21T06:11:04.161Z,55.75
2023-06-21T06:12:04.118Z,47.21
2023-06-21T06:13:04.120Z,47.53
2023-06-21T06:14:04.149Z,47.21
2023-06-21T06:15:04.119Z,45.92
2023-06-21T06:16:04.099Z,47.70
2023-06-21T06:17:04.085Z,49.63
2023-06-21T06:18:04.141Z,45.76
2023-06-21T06:19:04.072Z,46.89
2023-06-21T06:20:04.084Z,48.18
2023-06-21T06:21:04.057Z,40.44
2023-06-21T06:22:04.049Z,51.88
2023-06-21T06:23:04.042Z,45.28
2023-06-21T06:24:04.059Z,49.31
2023-06-21T06:25:04.067Z,47.53
2023-06-21T06:26:04.023Z,48.34
2023-06-21T06:27:04.018Z,46.89
2023-06-21T06:28:04.039Z,51.72
2023-06-21T06:29:04.030Z,48.82
2023-06-21T06:30:04.007Z,51.08
2023-06-21T06:31:04.012Z,48.82
2023-06-21T06:32:03.985Z,51.08
2023-06-21T06:33:04.077Z,45.60
2023-06-21T06:34:04.005Z,44.96
2023-06-21T06:35:03.976Z,49.31
2023-06-21T06:36:03.968Z,44.15
2023-06-21T06:37:13.742Z,52.05
2023-06-21T06:38:05.973Z,48.82
2023-06-21T06:39:03.960Z,52.37
2023-06-21T06:40:03.929Z,48.50
2023-06-21T06:41:03.926Z,43.34
2023-06-21T06:42:03.913Z,50.43
2023-06-21T06:43:03.960Z,47.86
2023-06-21T06:44:03.913Z,48.82
2023-06-21T06:45:03.912Z,48.66
2023-06-21T06:46:03.892Z,48.82
2023-06-21T06:47:03.882Z,49.79
2023-06-21T06:48:03.943Z,50.76
2023-06-21T06:49:03.867Z,45.92
2023-06-21T06:50:03.866Z,43.51
2023-06-21T06:51:03.858Z,46.08
2023-06-21T06:52:03.870Z,41.73
2023-06-21T06:53:03.892Z,47.86
2023-06-21T06:54:04.202Z,41.57
2023-06-21T06:55:04.834Z,47.21
2023-06-21T06:56:03.846Z,44.15
2023-06-21T06:57:03.846Z,46.08
2023-06-21T06:58:06.153Z,40.61
2023-06-21T06:59:04.822Z,44.15
2023-06-21T07:00:03.805Z,41.73
2023-06-21T07:01:03.798Z,41.57
2023-06-21T07:02:03.808Z,43.99
2023-06-21T07:03:03.912Z,44.96
2023-06-21T07:04:03.851Z,48.18
2023-06-21T07:05:03.802Z,44.63
2023-06-21T07:06:03.765Z,46.89
2023-06-21T07:07:03.779Z,42.06
2023-06-21T07:08:03.748Z,43.02
2023-06-21T07:09:03.823Z,42.22
2023-06-21T07:10:03.737Z,37.22
2023-06-21T07:11:03.756Z,40.77
2023-06-21T07:12:03.750Z,39.80
2023-06-21T07:13:03.760Z,41.89
2023-06-21T07:14:03.712Z,43.34
2023-06-21T07:15:03.705Z,44.96
2023-06-21T07:16:03.725Z,43.18
2023-06-21T07:17:03.697Z,47.05
2023-06-21T07:18:03.710Z,44.15
2023-06-21T07:19:03.682Z,45.44
2023-06-21T07:20:03.700Z,43.18
2023-06-21T07:21:03.688Z,40.77
2023-06-21T07:22:03.664Z,43.02
2023-06-21T07:23:03.776Z,44.63
2023-06-21T07:24:03.650Z,48.50
2023-06-21T07:25:03.665Z,46.41
2023-06-21T07:26:03.658Z,46.89
2023-06-21T07:27:03.671Z,40.28
2023-06-21T07:28:03.636Z,45.28
2023-06-21T07:29:03.602Z,45.44
2023-06-21T07:30:04.642Z,44.79
2023-06-21T07:31:03.645Z,39.48
2023-06-21T07:32:03.596Z,43.83
2023-06-21T07:33:03.607Z,41.57
2023-06-21T07:34:07.311Z,45.60
2023-06-21T07:35:05.607Z,43.51
2023-06-21T07:36:03.649Z,47.53
2023-06-21T07:37:03.561Z,43.34
2023-06-21T07:38:03.561Z,46.73
2023-06-21T07:39:03.587Z,39.32
2023-06-21T07:40:03.607Z,43.34
2023-06-21T07:41:04.001Z,40.28
2023-06-21T07:42:13.363Z,45.92
2023-06-21T07:43:05.536Z,44.63
2023-06-21T07:44:03.543Z,40.28
2023-06-21T07:45:03.523Z,41.73
2023-06-21T07:46:14.538Z,40.44
2023-06-21T07:47:05.562Z,39.16
2023-06-21T07:48:03.509Z,43.99
2023-06-21T07:49:03.526Z,46.08
2023-06-21T07:50:16.431Z,43.18
2023-06-21T07:51:05.469Z,41.89
2023-06-21T07:52:03.470Z,47.86
2023-06-21T07:53:03.487Z,46.08
2023-06-21T07:54:03.483Z,46.08
2023-06-21T07:55:03.442Z,38.99
2023-06-21T07:56:03.450Z,44.63
2023-06-21T07:57:03.446Z,43.51
2023-06-21T07:58:03.449Z,43.51
2023-06-21T07:59:03.418Z,44.31
2023-06-21T08:00:03.419Z,44.15
2023-06-21T08:01:03.407Z,41.41
2023-06-21T08:02:03.424Z,42.38
2023-06-21T08:03:03.454Z,39.48
2023-06-21T08:04:03.432Z,36.90
2023-06-21T08:05:03.383Z,46.41
2023-06-21T08:06:03.381Z,41.73
2023-06-21T08:07:03.397Z,48.50
2023-06-21T08:08:03.385Z,52.21
2023-06-21T08:09:03.355Z,43.02
2023-06-21T08:10:03.351Z,37.38
2023-06-21T08:11:03.349Z,41.57
2023-06-21T08:12:03.380Z,51.24
2023-06-21T08:13:03.365Z,46.08
2023-06-21T08:14:03.334Z,41.89
2023-06-21T08:15:03.323Z,41.09
2023-06-21T08:16:03.311Z,44.15
2023-06-21T08:17:03.335Z,37.71
2023-06-21T08:18:03.366Z,39.32
2023-06-21T08:19:03.302Z,43.67
2023-06-21T08:20:03.299Z,39.96
2023-06-21T08:21:03.339Z,41.09
2023-06-21T08:22:03.307Z,45.28
2023-06-21T08:23:03.272Z,45.60
2023-06-21T08:24:03.269Z,44.47
2023-06-21T08:25:03.257Z,45.92
2023-06-21T08:26:03.288Z,38.67
2023-06-21T08:27:03.284Z,43.83
2023-06-21T08:28:03.246Z,41.57
2023-06-21T08:29:03.243Z,44.63
2023-06-21T08:30:03.222Z,42.38
2023-06-21T08:31:04.266Z,44.79
2023-06-21T08:32:03.231Z,40.77
2023-06-21T08:33:03.224Z,41.57
2023-06-21T08:34:03.201Z,43.34
2023-06-21T08:35:03.198Z,37.87
2023-06-21T08:36:03.218Z,41.09
2023-06-21T08:37:03.183Z,39.80
2023-06-21T08:38:18.372Z,37.22
2023-06-21T08:39:05.173Z,42.70
2023-06-21T08:40:03.188Z,45.76
2023-06-21T08:41:03.216Z,44.31
2023-06-21T08:42:03.164Z,45.28
2023-06-21T08:43:03.153Z,47.21
2023-06-21T08:44:03.135Z,45.12
2023-06-21T08:45:03.159Z,45.76
2023-06-21T08:46:05.228Z,43.02
2023-06-21T08:47:03.122Z,44.15
2023-06-21T08:48:03.192Z,50.76
2023-06-21T08:49:03.116Z,45.60
2023-06-21T08:50:03.151Z,46.41
2023-06-21T08:51:03.100Z,40.12
2023-06-21T08:52:03.093Z,43.67
2023-06-21T08:53:03.082Z,45.44
2023-06-21T08:54:03.074Z,42.06
2023-06-21T08:55:03.094Z,40.61
2023-06-21T08:56:03.060Z,41.73
2023-06-21T08:57:03.077Z,42.54
2023-06-21T08:58:03.544Z,38.67
2023-06-21T08:59:03.074Z,38.67
2023-06-21T09:00:03.081Z,41.57
2023-06-21T09:01:03.082Z,48.50
2023-06-21T09:02:03.761Z,43.34
2023-06-21T09:03:03.189Z,41.25
2023-06-21T09:04:03.114Z,42.86
2023-06-21T09:05:03.043Z,46.89
2023-06-21T09:06:02.996Z,37.38
2023-06-21T09:07:02.991Z,42.54
2023-06-21T09:08:04.980Z,42.38
2023-06-21T09:09:04.146Z,45.92
2023-06-21T09:10:02.965Z,45.60
2023-06-21T09:11:02.974Z,40.93
2023-06-21T09:12:02.963Z,40.93
2023-06-21T09:13:02.961Z,43.83
2023-06-21T09:14:04.489Z,42.70
2023-06-21T09:15:02.937Z,48.50
2023-06-21T09:16:02.983Z,42.54
2023-06-21T09:17:02.929Z,46.89
2023-06-21T09:18:02.988Z,48.98
2023-06-21T09:19:02.936Z,61.87
2023-06-21T09:20:02.919Z,65.90
2023-06-21T09:21:02.896Z,66.71
2023-06-21T09:22:02.892Z,68.32
2023-06-21T09:23:02.915Z,68.32
2023-06-21T09:24:02.875Z,67.35
2023-06-21T09:25:02.941Z,69.61
2023-06-21T09:26:02.861Z,69.93
2023-06-21T09:27:02.860Z,70.42
2023-06-21T09:28:02.884Z,70.09
2023-06-21T09:29:02.848Z,69.61
2023-06-21T09:30:17.517Z,68.96
2023-06-21T09:31:04.833Z,66.71
2023-06-21T09:32:02.847Z,71.70
2023-06-21T09:33:02.921Z,71.54
2023-06-21T09:34:02.907Z,72.51
2023-06-21T09:35:02.803Z,71.54
2023-06-21T09:36:02.806Z,69.77
2023-06-21T09:37:02.825Z,68.80
2023-06-21T09:38:02.783Z,69.93
2023-06-21T09:39:02.777Z,53.66
2023-06-21T09:40:02.770Z,56.07
2023-06-21T09:41:02.833Z,66.23
2023-06-21T09:42:02.775Z,66.23
2023-06-21T09:43:02.747Z,70.42
2023-06-21T09:44:02.744Z,70.74
2023-06-21T09:45:02.740Z,70.58
2023-06-21T09:46:02.749Z,71.06
2023-06-21T09:47:02.744Z,64.61
2023-06-21T09:48:02.750Z,61.23
2023-06-21T09:49:02.799Z,61.71
2023-06-21T09:50:02.689Z,63.16
2023-06-21T09:51:02.745Z,60.26
2023-06-21T09:52:02.705Z,60.59
2023-06-21T09:53:02.669Z,62.84
2023-06-21T09:54:02.666Z,59.30
2023-06-21T09:55:02.656Z,50.11
2023-06-21T09:56:02.687Z,54.79
2023-06-21T09:57:02.646Z,58.17
2023-06-21T09:58:02.641Z,54.95
2023-06-21T09:59:02.659Z,56.88
2023-06-21T10:00:02.621Z,57.36
2023-06-21T10:01:02.665Z,57.04
2023-06-21T10:02:02.619Z,57.04
2023-06-21T10:03:02.849Z,56.56
2023-06-21T10:04:02.658Z,56.56
2023-06-21T10:05:02.617Z,57.36
2023-06-21T10:06:02.608Z,57.36
2023-06-21T10:07:02.623Z,56.24
2023-06-21T10:08:02.565Z,57.20
2023-06-21T10:09:02.563Z,57.69
2023-06-21T10:10:02.607Z,57.20
2023-06-21T10:11:02.612Z,57.52
2023-06-21T10:12:02.532Z,56.56
2023-06-21T10:13:02.553Z,59.14
2023-06-21T10:14:02.529Z,57.85
2023-06-21T10:15:02.560Z,54.46
2023-06-21T10:16:03.535Z,57.69
2023-06-21T10:17:02.508Z,58.17
2023-06-21T10:18:06.185Z,59.46
2023-06-21T10:19:03.516Z,69.29
2023-06-21T10:20:02.524Z,55.11
2023-06-21T10:21:02.508Z,54.14
2023-06-21T10:22:02.475Z,56.72
2023-06-21T10:23:02.486Z,56.88
2023-06-21T10:24:02.501Z,55.91
2023-06-21T10:25:04.780Z,50.92
2023-06-21T10:26:03.447Z,48.50
2023-06-21T10:27:02.431Z,56.72
2023-06-21T10:28:02.428Z,57.20
2023-06-21T10:29:02.459Z,58.17
2023-06-21T10:30:02.412Z,43.02
2023-06-21T10:31:02.420Z,44.47
2023-06-21T10:32:02.489Z,45.28
2023-06-21T10:33:02.479Z,48.18
2023-06-21T10:34:02.418Z,49.47
2023-06-21T10:35:02.419Z,48.50
2023-06-21T10:36:02.380Z,48.66
2023-06-21T10:37:02.367Z,43.99
2023-06-21T10:38:02.477Z,45.92
2023-06-21T10:39:02.369Z,46.57
2023-06-21T10:40:10.830Z,41.25
2023-06-21T10:41:04.355Z,43.67
2023-06-21T10:42:02.328Z,39.32
2023-06-21T10:43:02.347Z,40.61
2023-06-21T10:44:02.309Z,51.24
2023-06-21T10:45:02.345Z,48.98
2023-06-21T10:46:02.309Z,49.15
2023-06-21T10:47:02.326Z,49.95
2023-06-21T10:48:02.326Z,39.80
2023-06-21T10:49:02.276Z,43.99
2023-06-21T10:50:02.381Z,46.41
2023-06-21T10:51:02.270Z,42.54
2023-06-21T10:52:02.286Z,45.92
2023-06-21T10:53:02.259Z,44.79
2023-06-21T10:54:02.241Z,40.93
2023-06-21T10:55:02.234Z,45.76
2023-06-21T10:56:02.234Z,44.79
2023-06-21T10:57:02.252Z,44.96
2023-06-21T10:58:02.246Z,44.47
2023-06-21T10:59:02.216Z,44.63
2023-06-21T11:00:02.206Z,47.37
2023-06-21T11:01:02.217Z,47.70
2023-06-21T11:02:02.211Z,50.43
2023-06-21T11:03:02.291Z,46.41
2023-06-21T11:04:02.230Z,43.83
2023-06-21T11:05:02.217Z,41.41
2023-06-21T11:06:02.185Z,41.09
2023-06-21T11:07:02.189Z,42.06
2023-06-21T11:08:02.143Z,42.86
2023-06-21T11:09:02.139Z,43.34
2023-06-21T11:10:02.200Z,41.09
2023-06-21T11:11:02.174Z,42.38
2023-06-21T11:12:02.137Z,42.54
2023-06-21T11:13:02.117Z,44.63
2023-06-21T11:14:02.102Z,43.99
2023-06-21T11:15:02.101Z,44.15
2023-06-21T11:16:02.150Z,43.02
2023-06-21T11:17:02.114Z,41.73
2023-06-21T11:18:02.139Z,40.12
2023-06-21T11:19:02.069Z,45.28
2023-06-21T11:20:02.093Z,44.31
2023-06-21T11:21:02.086Z,47.37
2023-06-21T11:22:02.079Z,47.70
2023-06-21T11:23:02.050Z,49.15
2023-06-21T11:24:02.036Z,48.66
2023-06-21T11:25:02.312Z,51.56
2023-06-21T11:26:02.047Z,49.63
2023-06-21T11:27:02.030Z,46.41
2023-06-21T11:28:02.014Z,45.12
2023-06-21T11:29:02.010Z,44.31
2023-06-21T11:30:02.540Z,45.92
2023-06-21T11:31:02.033Z,43.34
2023-06-21T11:32:01.979Z,50.11
2023-06-21T11:33:02.004Z,60.59
2023-06-21T11:34:02.209Z,54.46
2023-06-21T11:35:02.106Z,54.62
2023-06-21T11:36:01.950Z,54.62
2023-06-21T11:37:01.945Z,55.11
2023-06-21T11:38:01.940Z,64.45
2023-06-21T11:39:01.962Z,57.69
2023-06-21T11:40:01.958Z,57.85
2023-06-21T11:41:01.916Z,54.79
2023-06-21T11:42:01.962Z,56.40
2023-06-21T11:43:01.905Z,58.65
2023-06-21T11:44:01.944Z,50.27
2023-06-21T11:45:01.887Z,43.02
2023-06-21T11:46:01.892Z,42.06
2023-06-21T11:47:01.877Z,51.56
2023-06-21T11:48:01.958Z,56.07
2023-06-21T11:49:01.884Z,55.27
2023-06-21T11:50:01.860Z,46.73
2023-06-21T11:51:01.854Z,45.92
2023-06-21T11:52:01.832Z,45.12
2023-06-21T11:53:01.857Z,43.83
2023-06-21T11:54:01.852Z,41.41
2023-06-21T11:55:01.830Z,49.47
2023-06-21T11:56:01.835Z,49.79
2023-06-21T11:57:01.805Z,53.66
2023-06-21T11:58:02.122Z,46.57
2023-06-21T11:59:01.793Z,48.50
2023-06-21T12:00:01.784Z,48.02
2023-06-21T12:01:01.762Z,43.18
2023-06-21T12:02:02.800Z,45.60
2023-06-21T12:03:01.941Z,40.12
2023-06-21T12:04:01.997Z,44.96
2023-06-21T12:05:02.009Z,49.63
2023-06-21T12:06:01.743Z,48.34
2023-06-21T12:07:01.754Z,50.11
2023-06-21T12:08:01.754Z,49.79
2023-06-21T12:09:01.712Z,45.60
2023-06-21T12:10:01.710Z,53.66
2023-06-21T12:11:01.711Z,57.69
2023-06-21T12:12:01.715Z,65.10
2023-06-21T12:13:01.683Z,60.59
2023-06-21T12:14:01.688Z,68.64
2023-06-21T12:15:01.668Z,70.25
2023-06-21T12:16:01.689Z,44.47
2023-06-21T12:17:01.695Z,48.02
2023-06-21T12:18:01.704Z,43.67
2023-06-21T12:19:01.634Z,44.63
2023-06-21T12:20:01.632Z,46.08
2023-06-21T12:21:01.675Z,44.96
2023-06-21T12:22:01.647Z,41.89
2023-06-21T12:23:01.603Z,42.06
2023-06-21T12:24:01.641Z,46.89
2023-06-21T12:25:01.597Z,41.57
2023-06-21T12:26:01.633Z,41.25
2023-06-21T12:27:01.621Z,46.08
2023-06-21T12:28:01.595Z,41.57
2023-06-21T12:29:01.567Z,45.28
2023-06-21T12:30:02.592Z,47.70
2023-06-21T12:31:01.619Z,50.27
2023-06-21T12:32:01.547Z,47.05
2023-06-21T12:33:01.594Z,51.40
2023-06-21T12:34:01.532Z,49.63
2023-06-21T12:35:01.524Z,53.01
2023-06-21T12:36:01.566Z,53.98
2023-06-21T12:37:01.591Z,56.88
2023-06-21T12:38:01.507Z,51.88
2023-06-21T12:39:01.546Z,54.14
2023-06-21T12:40:01.510Z,51.88
2023-06-21T12:41:01.512Z,56.07
2023-06-21T12:42:01.488Z,54.79
2023-06-21T12:43:01.459Z,56.40
2023-06-21T12:44:02.529Z,55.75
2023-06-21T12:45:01.490Z,55.75
2023-06-21T12:46:01.475Z,55.27
2023-06-21T12:47:01.441Z,56.07
2023-06-21T12:48:01.506Z,54.46
2023-06-21T12:49:01.431Z,57.85
2023-06-21T12:50:01.466Z,59.14
2023-06-21T12:51:01.443Z,58.81
2023-06-21T12:52:01.411Z,57.36
2023-06-21T12:53:01.392Z,52.21